sensor_id;sensor_type;location;lat;lon;timestamp;temperature;humidity
29891;DHT22;16759;49.540;8.642;2022-08-03T00:00:39;20.80;99.90
29891;DHT22;16759;49.540;8.642;2022-08-03T00:03:05;20.80;99.90
29891;DHT22;16759;49.540;8.642;2022-08-03T00:05:33;20.80;99.90
29891;DHT22;16759;49.540;8.642;2022-08-03T00:07:59;20.80;99.90
29891;DHT22;16759;49.540;8.642;2022-08-03T00:10:24;20.80;99.90
29891;DHT22;16759;49.540;8.642;2022-08-03T00:12:52;20.70;99.90
29891;DHT22;16759;49.540;8.642;2022-08-03T00:15:18;20.70;99.90
29891;DHT22;16759;49.540;8.642;2022-08-03T00:17:43;20.70;99.90
29891;DHT22;16759;49.540;8.642;2022-08-03T00:20:11;20.80;99.90
29891;DHT22;16759;49.540;8.642;2022-08-03T00:22:37;20.80;99.90
29891;DHT22;16759;49.540;8.642;2022-08-03T00:25:03;20.60;99.90
29891;DHT22;16759;49.540;8.642;2022-08-03T00:27:31;20.80;99.90
29891;DHT22;16759;49.540;8.642;2022-08-03T00:29:56;20.90;99.90
29891;DHT22;16759;49.540;8.642;2022-08-03T00:32:22;20.90;99.90
29891;DHT22;16759;49.540;8.642;2022-08-03T00:34:47;21.00;99.90
29891;DHT22;16759;49.540;8.642;2022-08-03T00:37:13;21.00;99.90
29891;DHT22;16759;49.540;8.642;2022-08-03T00:39:38;21.00;99.90
29891;DHT22;16759;49.540;8.642;2022-08-03T00:42:09;21.00;99.70
29891;DHT22;16759;49.540;8.642;2022-08-03T00:44:42;21.10;98.90
29891;DHT22;16759;49.540;8.642;2022-08-03T00:47:07;21.20;98.50
29891;DHT22;16759;49.540;8.642;2022-08-03T00:49:37;21.20;98.80
29891;DHT22;16759;49.540;8.642;2022-08-03T00:52:03;21.40;97.80
29891;DHT22;16759;49.540;8.642;2022-08-03T00:54:31;21.30;97.70
29891;DHT22;16759;49.540;8.642;2022-08-03T00:56:57;21.20;97.00
29891;DHT22;16759;49.540;8.642;2022-08-03T00:59:25;21.20;97.30
29891;DHT22;16759;49.540;8.642;2022-08-03T01:01:52;21.10;97.60
29891;DHT22;16759;49.540;8.642;2022-08-03T01:04:20;21.00;97.90
29891;DHT22;16759;49.540;8.642;2022-08-03T01:06:49;20.90;98.70
29891;DHT22;16759;49.540;8.642;2022-08-03T01:12:00;20.30;99.90
29891;DHT22;16759;49.540;8.642;2022-08-03T01:14:37;20.30;99.90
29891;DHT22;16759;49.540;8.642;2022-08-03T01:17:11;20.40;99.90
29891;DHT22;16759;49.540;8.642;2022-08-03T01:27:08;20.60;99.00
29891;DHT22;16759;49.540;8.642;2022-08-03T01:29:44;20.50;99.60
29891;DHT22;16759;49.540;8.642;2022-08-03T01:32:14;20.50;99.30
29891;DHT22;16759;49.540;8.642;2022-08-03T01:34:42;20.50;98.90
29891;DHT22;16759;49.540;8.642;2022-08-03T01:37:09;20.50;99.30
29891;DHT22;16759;49.540;8.642;2022-08-03T01:39:36;20.60;98.10
29891;DHT22;16759;49.540;8.642;2022-08-03T01:42:05;20.50;99.40
29891;DHT22;16759;49.540;8.642;2022-08-03T01:44:34;20.30;99.90
29891;DHT22;16759;49.540;8.642;2022-08-03T01:47:01;19.90;99.90
29891;DHT22;16759;49.540;8.642;2022-08-03T01:49:27;19.90;99.90
29891;DHT22;16759;49.540;8.642;2022-08-03T01:51:54;19.80;99.90
29891;DHT22;16759;49.540;8.642;2022-08-03T01:54:20;19.80;99.90
29891;DHT22;16759;49.540;8.642;2022-08-03T01:56:47;19.90;99.90
29891;DHT22;16759;49.540;8.642;2022-08-03T01:59:14;20.10;99.90
29891;DHT22;16759;49.540;8.642;2022-08-03T02:01:40;20.20;99.90
29891;DHT22;16759;49.540;8.642;2022-08-03T02:04:06;20.20;99.90
29891;DHT22;16759;49.540;8.642;2022-08-03T02:06:33;20.20;99.90
29891;DHT22;16759;49.540;8.642;2022-08-03T02:08:59;20.20;99.90
29891;DHT22;16759;49.540;8.642;2022-08-03T02:11:25;20.30;99.60
29891;DHT22;16759;49.540;8.642;2022-08-03T02:13:51;20.20;99.80
29891;DHT22;16759;49.540;8.642;2022-08-03T02:16:17;20.20;98.60
29891;DHT22;16759;49.540;8.642;2022-08-03T02:18:43;20.20;99.90
29891;DHT22;16759;49.540;8.642;2022-08-03T02:21:09;19.60;99.90
29891;DHT22;16759;49.540;8.642;2022-08-03T02:23:36;19.40;99.90
29891;DHT22;16759;49.540;8.642;2022-08-03T02:26:03;19.60;99.90
29891;DHT22;16759;49.540;8.642;2022-08-03T02:28:31;19.70;99.90
29891;DHT22;16759;49.540;8.642;2022-08-03T02:30:57;19.80;99.90
29891;DHT22;16759;49.540;8.642;2022-08-03T02:33:28;19.80;99.70
29891;DHT22;16759;49.540;8.642;2022-08-03T02:35:57;19.90;99.90
29891;DHT22;16759;49.540;8.642;2022-08-03T02:38:25;19.70;99.90
29891;DHT22;16759;49.540;8.642;2022-08-03T02:40:52;19.50;99.90
29891;DHT22;16759;49.540;8.642;2022-08-03T02:43:20;19.40;99.90
29891;DHT22;16759;49.540;8.642;2022-08-03T02:45:47;19.40;99.90
29891;DHT22;16759;49.540;8.642;2022-08-03T02:48:16;19.40;99.90
29891;DHT22;16759;49.540;8.642;2022-08-03T02:50:43;19.50;99.90
29891;DHT22;16759;49.540;8.642;2022-08-03T02:53:09;19.50;99.90
29891;DHT22;16759;49.540;8.642;2022-08-03T02:55:35;19.30;99.90
29891;DHT22;16759;49.540;8.642;2022-08-03T02:58:01;19.20;99.90
29891;DHT22;16759;49.540;8.642;2022-08-03T03:00:27;19.10;99.90
29891;DHT22;16759;49.540;8.642;2022-08-03T03:02:56;19.10;99.90
29891;DHT22;16759;49.540;8.642;2022-08-03T03:05:25;19.00;99.90
29891;DHT22;16759;49.540;8.642;2022-08-03T03:07:55;18.90;99.90
29891;DHT22;16759;49.540;8.642;2022-08-03T03:10:21;18.90;99.90
29891;DHT22;16759;49.540;8.642;2022-08-03T03:12:49;18.90;99.90
29891;DHT22;16759;49.540;8.642;2022-08-03T03:15:15;19.00;99.90
29891;DHT22;16759;49.540;8.642;2022-08-03T03:17:41;19.10;99.90
29891;DHT22;16759;49.540;8.642;2022-08-03T03:20:07;19.00;99.90
29891;DHT22;16759;49.540;8.642;2022-08-03T03:22:33;18.90;99.90
29891;DHT22;16759;49.540;8.642;2022-08-03T03:24:59;18.80;99.90
29891;DHT22;16759;49.540;8.642;2022-08-03T03:27:25;18.90;99.90
29891;DHT22;16759;49.540;8.642;2022-08-03T03:29:51;18.90;99.90
29891;DHT22;16759;49.540;8.642;2022-08-03T03:32:17;19.00;99.90
29891;DHT22;16759;49.540;8.642;2022-08-03T03:34:42;19.10;99.90
29891;DHT22;16759;49.540;8.642;2022-08-03T03:37:08;19.20;99.90
29891;DHT22;16759;49.540;8.642;2022-08-03T03:39:36;19.30;99.90
29891;DHT22;16759;49.540;8.642;2022-08-03T03:42:01;19.30;99.90
29891;DHT22;16759;49.540;8.642;2022-08-03T03:44:28;19.30;99.90
29891;DHT22;16759;49.540;8.642;2022-08-03T03:46:54;19.40;99.90
29891;DHT22;16759;49.540;8.642;2022-08-03T03:49:19;19.40;99.90
29891;DHT22;16759;49.540;8.642;2022-08-03T03:51:45;19.40;99.90
29891;DHT22;16759;49.540;8.642;2022-08-03T03:54:10;19.40;99.90
29891;DHT22;16759;49.540;8.642;2022-08-03T03:56:36;19.40;99.90
29891;DHT22;16759;49.540;8.642;2022-08-03T03:59:01;19.20;99.90
29891;DHT22;16759;49.540;8.642;2022-08-03T04:01:29;18.80;99.90
29891;DHT22;16759;49.540;8.642;2022-08-03T04:03:57;18.80;99.90
29891;DHT22;16759;49.540;8.642;2022-08-03T04:06:43;18.70;99.90
29891;DHT22;16759;49.540;8.642;2022-08-03T04:09:27;18.60;99.90
29891;DHT22;16759;49.540;8.642;2022-08-03T04:12:11;18.70;99.90
29891;DHT22;16759;49.540;8.642;2022-08-03T04:14:37;18.80;99.90
29891;DHT22;16759;49.540;8.642;2022-08-03T04:17:04;18.80;99.90
29891;DHT22;16759;49.540;8.642;2022-08-03T04:19:34;18.80;99.90
29891;DHT22;16759;49.540;8.642;2022-08-03T04:22:10;19.00;99.90
29891;DHT22;16759;49.540;8.642;2022-08-03T04:24:40;19.20;99.90
29891;DHT22;16759;49.540;8.642;2022-08-03T04:27:08;19.40;99.90
29891;DHT22;16759;49.540;8.642;2022-08-03T04:29:36;19.90;99.90
29891;DHT22;16759;49.540;8.642;2022-08-03T04:32:05;20.20;99.90
29891;DHT22;16759;49.540;8.642;2022-08-03T04:34:32;20.30;99.90
29891;DHT22;16759;49.540;8.642;2022-08-03T04:36:58;20.30;99.90
29891;DHT22;16759;49.540;8.642;2022-08-03T04:39:24;20.40;99.90
29891;DHT22;16759;49.540;8.642;2022-08-03T04:41:53;20.20;99.90
29891;DHT22;16759;49.540;8.642;2022-08-03T04:44:20;20.00;99.90
29891;DHT22;16759;49.540;8.642;2022-08-03T04:46:47;20.00;99.90
29891;DHT22;16759;49.540;8.642;2022-08-03T04:49:13;20.20;99.90
29891;DHT22;16759;49.540;8.642;2022-08-03T04:51:39;20.10;99.90
29891;DHT22;16759;49.540;8.642;2022-08-03T04:54:04;20.00;99.90
29891;DHT22;16759;49.540;8.642;2022-08-03T04:56:32;20.00;99.90
29891;DHT22;16759;49.540;8.642;2022-08-03T04:58:58;20.10;99.90
29891;DHT22;16759;49.540;8.642;2022-08-03T05:01:24;20.40;99.90
29891;DHT22;16759;49.540;8.642;2022-08-03T05:03:49;20.40;99.90
29891;DHT22;16759;49.540;8.642;2022-08-03T05:06:15;20.40;99.90
29891;DHT22;16759;49.540;8.642;2022-08-03T05:08:41;20.40;99.90
29891;DHT22;16759;49.540;8.642;2022-08-03T05:11:06;20.50;99.90
29891;DHT22;16759;49.540;8.642;2022-08-03T05:13:32;20.50;99.90
29891;DHT22;16759;49.540;8.642;2022-08-03T05:15:57;20.60;99.90
29891;DHT22;16759;49.540;8.642;2022-08-03T05:18:23;20.60;99.90
29891;DHT22;16759;49.540;8.642;2022-08-03T05:20:48;20.80;99.90
29891;DHT22;16759;49.540;8.642;2022-08-03T05:23:14;20.80;99.90
29891;DHT22;16759;49.540;8.642;2022-08-03T05:25:39;21.00;99.90
29891;DHT22;16759;49.540;8.642;2022-08-03T05:28:05;21.20;99.90
29891;DHT22;16759;49.540;8.642;2022-08-03T05:30:32;21.30;99.90
29891;DHT22;16759;49.540;8.642;2022-08-03T05:33:01;21.30;99.90
29891;DHT22;16759;49.540;8.642;2022-08-03T05:35:26;21.30;99.90
29891;DHT22;16759;49.540;8.642;2022-08-03T05:37:53;21.50;99.90
29891;DHT22;16759;49.540;8.642;2022-08-03T05:40:18;21.50;99.90
29891;DHT22;16759;49.540;8.642;2022-08-03T05:42:44;21.60;99.90
29891;DHT22;16759;49.540;8.642;2022-08-03T05:45:12;21.80;99.90
29891;DHT22;16759;49.540;8.642;2022-08-03T05:47:42;22.00;98.00
29891;DHT22;16759;49.540;8.642;2022-08-03T05:50:09;22.20;99.00
29891;DHT22;16759;49.540;8.642;2022-08-03T05:52:38;22.30;98.30
29891;DHT22;16759;49.540;8.642;2022-08-03T05:55:04;22.40;98.00
29891;DHT22;16759;49.540;8.642;2022-08-03T05:57:30;22.50;99.70
29891;DHT22;16759;49.540;8.642;2022-08-03T05:59:55;22.60;98.70
29891;DHT22;16759;49.540;8.642;2022-08-03T06:02:21;22.50;97.90
29891;DHT22;16759;49.540;8.642;2022-08-03T06:04:46;22.60;98.20
29891;DHT22;16759;49.540;8.642;2022-08-03T06:07:12;22.80;99.00
29891;DHT22;16759;49.540;8.642;2022-08-03T06:09:37;22.80;97.90
29891;DHT22;16759;49.540;8.642;2022-08-03T06:12:03;22.90;98.60
29891;DHT22;16759;49.540;8.642;2022-08-03T06:14:28;23.00;99.90
29891;DHT22;16759;49.540;8.642;2022-08-03T06:16:56;23.00;99.10
29891;DHT22;16759;49.540;8.642;2022-08-03T06:19:22;23.10;99.60
29891;DHT22;16759;49.540;8.642;2022-08-03T06:21:48;23.10;99.20
29891;DHT22;16759;49.540;8.642;2022-08-03T06:24:16;23.20;99.80
29891;DHT22;16759;49.540;8.642;2022-08-03T06:26:44;23.20;99.60
29891;DHT22;16759;49.540;8.642;2022-08-03T06:29:10;23.30;99.20
29891;DHT22;16759;49.540;8.642;2022-08-03T06:31:37;23.50;97.40
29891;DHT22;16759;49.540;8.642;2022-08-03T06:34:03;23.60;97.40
29891;DHT22;16759;49.540;8.642;2022-08-03T06:36:29;23.50;97.60
29891;DHT22;16759;49.540;8.642;2022-08-03T06:38:59;23.60;97.80
29891;DHT22;16759;49.540;8.642;2022-08-03T06:41:25;23.60;96.00
29891;DHT22;16759;49.540;8.642;2022-08-03T06:43:55;23.70;95.90
29891;DHT22;16759;49.540;8.642;2022-08-03T06:46:23;23.80;96.10
29891;DHT22;16759;49.540;8.642;2022-08-03T06:48:48;23.80;95.90
29891;DHT22;16759;49.540;8.642;2022-08-03T06:51:14;24.00;96.10
29891;DHT22;16759;49.540;8.642;2022-08-03T06:53:40;24.10;95.80
29891;DHT22;16759;49.540;8.642;2022-08-03T06:56:05;24.20;95.50
29891;DHT22;16759;49.540;8.642;2022-08-03T06:58:33;24.30;96.10
29891;DHT22;16759;49.540;8.642;2022-08-03T07:00:59;24.30;94.90
29891;DHT22;16759;49.540;8.642;2022-08-03T07:03:25;24.30;95.70
29891;DHT22;16759;49.540;8.642;2022-08-03T07:05:50;24.60;96.00
29891;DHT22;16759;49.540;8.642;2022-08-03T07:08:16;24.80;95.40
29891;DHT22;16759;49.540;8.642;2022-08-03T07:10:42;24.80;95.90
29891;DHT22;16759;49.540;8.642;2022-08-03T07:13:10;24.80;95.00
29891;DHT22;16759;49.540;8.642;2022-08-03T07:15:36;24.90;94.90
29891;DHT22;16759;49.540;8.642;2022-08-03T07:18:01;25.00;94.30
29891;DHT22;16759;49.540;8.642;2022-08-03T07:20:27;25.10;93.80
29891;DHT22;16759;49.540;8.642;2022-08-03T07:22:52;25.20;94.40
29891;DHT22;16759;49.540;8.642;2022-08-03T07:25:18;25.10;94.50
29891;DHT22;16759;49.540;8.642;2022-08-03T07:27:45;25.10;96.40
29891;DHT22;16759;49.540;8.642;2022-08-03T07:30:11;25.20;95.40
29891;DHT22;16759;49.540;8.642;2022-08-03T07:32:37;25.30;96.50
29891;DHT22;16759;49.540;8.642;2022-08-03T07:35:05;25.40;96.20
29891;DHT22;16759;49.540;8.642;2022-08-03T07:37:31;25.40;94.50
29891;DHT22;16759;49.540;8.642;2022-08-03T07:39:57;25.60;95.90
29891;DHT22;16759;49.540;8.642;2022-08-03T07:42:23;25.80;93.80
29891;DHT22;16759;49.540;8.642;2022-08-03T07:44:49;25.80;92.90
29891;DHT22;16759;49.540;8.642;2022-08-03T07:47:20;25.90;92.60
29891;DHT22;16759;49.540;8.642;2022-08-03T07:49:47;25.90;93.70
29891;DHT22;16759;49.540;8.642;2022-08-03T07:52:12;26.00;92.70
29891;DHT22;16759;49.540;8.642;2022-08-03T07:54:57;26.00;94.30
29891;DHT22;16759;49.540;8.642;2022-08-03T07:57:22;26.10;93.70
29891;DHT22;16759;49.540;8.642;2022-08-03T07:59:48;26.20;93.40
29891;DHT22;16759;49.540;8.642;2022-08-03T08:02:16;26.40;92.60
29891;DHT22;16759;49.540;8.642;2022-08-03T08:04:41;26.40;92.70
29891;DHT22;16759;49.540;8.642;2022-08-03T08:07:09;26.50;91.50
29891;DHT22;16759;49.540;8.642;2022-08-03T08:09:34;26.60;92.10
29891;DHT22;16759;49.540;8.642;2022-08-03T08:12:02;26.70;93.60
29891;DHT22;16759;49.540;8.642;2022-08-03T08:14:28;26.80;93.90
29891;DHT22;16759;49.540;8.642;2022-08-03T08:16:55;26.80;92.70
29891;DHT22;16759;49.540;8.642;2022-08-03T08:19:21;26.90;91.60
29891;DHT22;16759;49.540;8.642;2022-08-03T08:21:46;26.70;91.20
29891;DHT22;16759;49.540;8.642;2022-08-03T08:24:12;26.90;92.10
29891;DHT22;16759;49.540;8.642;2022-08-03T08:26:42;27.20;91.40
29891;DHT22;16759;49.540;8.642;2022-08-03T08:29:07;27.20;90.90
29891;DHT22;16759;49.540;8.642;2022-08-03T08:31:33;27.40;91.70
29891;DHT22;16759;49.540;8.642;2022-08-03T08:33:58;27.50;91.50
29891;DHT22;16759;49.540;8.642;2022-08-03T08:36:26;27.50;91.30
29891;DHT22;16759;49.540;8.642;2022-08-03T08:38:52;27.50;93.00
29891;DHT22;16759;49.540;8.642;2022-08-03T08:41:17;27.60;91.50
29891;DHT22;16759;49.540;8.642;2022-08-03T08:43:43;27.60;91.00
29891;DHT22;16759;49.540;8.642;2022-08-03T08:46:10;27.60;91.00
29891;DHT22;16759;49.540;8.642;2022-08-03T08:48:37;27.80;89.20
29891;DHT22;16759;49.540;8.642;2022-08-03T08:51:07;27.90;89.10
29891;DHT22;16759;49.540;8.642;2022-08-03T08:53:35;28.10;88.40
29891;DHT22;16759;49.540;8.642;2022-08-03T08:56:04;28.10;89.60
29891;DHT22;16759;49.540;8.642;2022-08-03T08:58:34;28.20;87.60
29891;DHT22;16759;49.540;8.642;2022-08-03T09:01:01;28.30;88.30
29891;DHT22;16759;49.540;8.642;2022-08-03T09:03:26;28.30;86.10
29891;DHT22;16759;49.540;8.642;2022-08-03T09:05:52;28.30;87.10
29891;DHT22;16759;49.540;8.642;2022-08-03T09:08:17;28.30;91.20
29891;DHT22;16759;49.540;8.642;2022-08-03T09:10:43;28.80;89.30
29891;DHT22;16759;49.540;8.642;2022-08-03T09:13:08;29.00;84.90
29891;DHT22;16759;49.540;8.642;2022-08-03T09:15:34;28.90;86.40
29891;DHT22;16759;49.540;8.642;2022-08-03T09:18:00;28.90;88.00
29891;DHT22;16759;49.540;8.642;2022-08-03T09:20:28;29.10;89.10
29891;DHT22;16759;49.540;8.642;2022-08-03T09:23:01;28.90;86.30
29891;DHT22;16759;49.540;8.642;2022-08-03T09:28:10;28.90;88.40
29891;DHT22;16759;49.540;8.642;2022-08-03T09:30:41;29.00;88.20
29891;DHT22;16759;49.540;8.642;2022-08-03T09:33:10;29.40;85.90
29891;DHT22;16759;49.540;8.642;2022-08-03T09:35:39;29.20;90.70
29891;DHT22;16759;49.540;8.642;2022-08-03T09:40:40;29.40;86.60
29891;DHT22;16759;49.540;8.642;2022-08-03T09:43:06;29.50;84.00
29891;DHT22;16759;49.540;8.642;2022-08-03T09:45:38;29.60;83.80
29891;DHT22;16759;49.540;8.642;2022-08-03T09:48:20;29.90;86.90
29891;DHT22;16759;49.540;8.642;2022-08-03T09:50:52;29.60;82.50
29891;DHT22;16759;49.540;8.642;2022-08-03T09:53:21;29.40;83.10
29891;DHT22;16759;49.540;8.642;2022-08-03T09:58:15;29.80;83.90
29891;DHT22;16759;49.540;8.642;2022-08-03T10:03:26;29.90;82.30
29891;DHT22;16759;49.540;8.642;2022-08-03T10:05:54;30.10;81.80
29891;DHT22;16759;49.540;8.642;2022-08-03T10:08:20;30.30;84.00
29891;DHT22;16759;49.540;8.642;2022-08-03T10:10:47;30.20;84.50
29891;DHT22;16759;49.540;8.642;2022-08-03T10:13:13;30.10;85.40
29891;DHT22;16759;49.540;8.642;2022-08-03T10:15:39;30.20;82.10
29891;DHT22;16759;49.540;8.642;2022-08-03T10:18:07;30.30;82.60
29891;DHT22;16759;49.540;8.642;2022-08-03T10:21:09;30.10;81.40
29891;DHT22;16759;49.540;8.642;2022-08-03T10:23:27;30.10;85.60
29891;DHT22;16759;49.540;8.642;2022-08-03T10:25:57;30.40;81.70
29891;DHT22;16759;49.540;8.642;2022-08-03T10:28:23;30.80;83.60
29891;DHT22;16759;49.540;8.642;2022-08-03T10:30:50;31.00;81.40
29891;DHT22;16759;49.540;8.642;2022-08-03T10:33:21;30.80;84.10
29891;DHT22;16759;49.540;8.642;2022-08-03T10:35:53;30.60;86.30
29891;DHT22;16759;49.540;8.642;2022-08-03T10:38:22;30.70;86.10
29891;DHT22;16759;49.540;8.642;2022-08-03T10:40:52;30.90;87.50
29891;DHT22;16759;49.540;8.642;2022-08-03T10:43:41;30.80;83.00
29891;DHT22;16759;49.540;8.642;2022-08-03T10:46:05;30.90;82.00
29891;DHT22;16759;49.540;8.642;2022-08-03T10:48:31;31.10;82.80
29891;DHT22;16759;49.540;8.642;2022-08-03T10:50:59;31.30;81.20
29891;DHT22;16759;49.540;8.642;2022-08-03T10:53:36;31.20;81.00
29891;DHT22;16759;49.540;8.642;2022-08-03T10:56:02;31.00;83.70
29891;DHT22;16759;49.540;8.642;2022-08-03T10:58:46;31.40;83.00
29891;DHT22;16759;49.540;8.642;2022-08-03T11:01:16;31.30;84.60
29891;DHT22;16759;49.540;8.642;2022-08-03T11:06:18;31.10;82.10
29891;DHT22;16759;49.540;8.642;2022-08-03T11:08:46;31.30;82.30
29891;DHT22;16759;49.540;8.642;2022-08-03T11:16:27;31.40;79.20
29891;DHT22;16759;49.540;8.642;2022-08-03T11:19:00;31.40;80.30
29891;DHT22;16759;49.540;8.642;2022-08-03T11:24:10;31.60;82.40
29891;DHT22;16759;49.540;8.642;2022-08-03T11:26:35;31.90;80.00
29891;DHT22;16759;49.540;8.642;2022-08-03T11:31:45;32.10;80.20
29891;DHT22;16759;49.540;8.642;2022-08-03T11:34:14;31.80;77.30
29891;DHT22;16759;49.540;8.642;2022-08-03T11:39:38;31.60;80.20
29891;DHT22;16759;49.540;8.642;2022-08-03T11:44:54;32.00;76.00
29891;DHT22;16759;49.540;8.642;2022-08-03T11:47:20;32.00;75.20
29891;DHT22;16759;49.540;8.642;2022-08-03T11:49:49;32.00;74.90
29891;DHT22;16759;49.540;8.642;2022-08-03T11:52:15;32.10;78.60
29891;DHT22;16759;49.540;8.642;2022-08-03T11:54:41;32.20;77.00
29891;DHT22;16759;49.540;8.642;2022-08-03T11:57:07;32.30;76.10
29891;DHT22;16759;49.540;8.642;2022-08-03T11:59:33;32.40;73.10
29891;DHT22;16759;49.540;8.642;2022-08-03T12:02:05;32.30;73.70
29891;DHT22;16759;49.540;8.642;2022-08-03T12:04:31;32.60;73.30
29891;DHT22;16759;49.540;8.642;2022-08-03T12:07:13;32.70;76.00
29891;DHT22;16759;49.540;8.642;2022-08-03T12:09:42;33.00;74.20
29891;DHT22;16759;49.540;8.642;2022-08-03T12:12:07;32.90;72.90
29891;DHT22;16759;49.540;8.642;2022-08-03T12:14:35;33.10;66.90
29891;DHT22;16759;49.540;8.642;2022-08-03T12:17:01;33.10;72.00
29891;DHT22;16759;49.540;8.642;2022-08-03T12:19:27;33.20;70.20
29891;DHT22;16759;49.540;8.642;2022-08-03T12:22:05;33.70;70.50
29891;DHT22;16759;49.540;8.642;2022-08-03T12:24:39;33.40;70.30
29891;DHT22;16759;49.540;8.642;2022-08-03T12:27:07;33.70;70.10
29891;DHT22;16759;49.540;8.642;2022-08-03T12:29:33;33.80;69.80
29891;DHT22;16759;49.540;8.642;2022-08-03T12:31:58;33.40;69.70
29891;DHT22;16759;49.540;8.642;2022-08-03T12:34:24;33.60;71.40
29891;DHT22;16759;49.540;8.642;2022-08-03T12:37:11;33.70;68.60
29891;DHT22;16759;49.540;8.642;2022-08-03T12:39:39;33.60;68.60
29891;DHT22;16759;49.540;8.642;2022-08-03T12:42:04;33.90;67.10
29891;DHT22;16759;49.540;8.642;2022-08-03T12:44:30;34.20;67.90
29891;DHT22;16759;49.540;8.642;2022-08-03T12:46:57;34.10;67.40
29891;DHT22;16759;49.540;8.642;2022-08-03T12:49:23;34.50;68.90
29891;DHT22;16759;49.540;8.642;2022-08-03T12:54:18;34.10;67.20
29891;DHT22;16759;49.540;8.642;2022-08-03T12:57:00;34.60;67.50
29891;DHT22;16759;49.540;8.642;2022-08-03T12:59:29;34.40;69.00
29891;DHT22;16759;49.540;8.642;2022-08-03T13:01:57;34.50;66.10
29891;DHT22;16759;49.540;8.642;2022-08-03T13:06:58;34.80;68.10
29891;DHT22;16759;49.540;8.642;2022-08-03T13:09:23;34.60;67.50
29891;DHT22;16759;49.540;8.642;2022-08-03T13:12:11;34.90;66.30
29891;DHT22;16759;49.540;8.642;2022-08-03T13:14:37;37.00;62.90
29891;DHT22;16759;49.540;8.642;2022-08-03T13:17:05;38.90;57.40
29891;DHT22;16759;49.540;8.642;2022-08-03T13:19:37;39.40;54.20
29891;DHT22;16759;49.540;8.642;2022-08-03T13:22:10;39.70;54.00
29891;DHT22;16759;49.540;8.642;2022-08-03T13:24:38;40.20;52.20
29891;DHT22;16759;49.540;8.642;2022-08-03T13:27:04;39.90;50.90
29891;DHT22;16759;49.540;8.642;2022-08-03T13:29:31;41.10;52.50
29891;DHT22;16759;49.540;8.642;2022-08-03T13:31:57;41.20;48.80
29891;DHT22;16759;49.540;8.642;2022-08-03T13:34:22;41.50;49.90
29891;DHT22;16759;49.540;8.642;2022-08-03T13:36:48;41.20;48.20
29891;DHT22;16759;49.540;8.642;2022-08-03T13:39:16;40.60;50.10
29891;DHT22;16759;49.540;8.642;2022-08-03T13:41:44;41.40;47.90
29891;DHT22;16759;49.540;8.642;2022-08-03T13:44:09;41.60;46.80
29891;DHT22;16759;49.540;8.642;2022-08-03T13:46:37;43.20;45.40
29891;DHT22;16759;49.540;8.642;2022-08-03T13:49:03;43.40;46.40
29891;DHT22;16759;49.540;8.642;2022-08-03T13:51:28;44.90;48.80
29891;DHT22;16759;49.540;8.642;2022-08-03T13:53:56;44.30;41.90
29891;DHT22;16759;49.540;8.642;2022-08-03T13:56:27;44.70;45.00
29891;DHT22;16759;49.540;8.642;2022-08-03T13:58:52;45.10;46.50
29891;DHT22;16759;49.540;8.642;2022-08-03T14:01:18;45.10;44.70
29891;DHT22;16759;49.540;8.642;2022-08-03T14:03:46;44.70;44.30
29891;DHT22;16759;49.540;8.642;2022-08-03T14:06:17;45.10;39.50
29891;DHT22;16759;49.540;8.642;2022-08-03T14:08:42;42.70;43.50
29891;DHT22;16759;49.540;8.642;2022-08-03T14:11:09;41.80;43.80
29891;DHT22;16759;49.540;8.642;2022-08-03T14:13:34;42.80;41.60
29891;DHT22;16759;49.540;8.642;2022-08-03T14:16:00;43.70;36.80
29891;DHT22;16759;49.540;8.642;2022-08-03T14:18:25;44.30;40.30
29891;DHT22;16759;49.540;8.642;2022-08-03T14:20:51;44.50;39.20
29891;DHT22;16759;49.540;8.642;2022-08-03T14:23:16;46.10;38.70
29891;DHT22;16759;49.540;8.642;2022-08-03T14:25:42;47.40;36.50
29891;DHT22;16759;49.540;8.642;2022-08-03T14:28:07;48.00;35.20
29891;DHT22;16759;49.540;8.642;2022-08-03T14:30:33;47.80;35.40
29891;DHT22;16759;49.540;8.642;2022-08-03T14:33:01;46.90;32.70
29891;DHT22;16759;49.540;8.642;2022-08-03T14:35:27;44.80;35.10
29891;DHT22;16759;49.540;8.642;2022-08-03T14:37:52;46.40;35.50
29891;DHT22;16759;49.540;8.642;2022-08-03T14:40:18;46.30;33.10
29891;DHT22;16759;49.540;8.642;2022-08-03T14:42:44;45.70;32.10
29891;DHT22;16759;49.540;8.642;2022-08-03T14:45:09;44.90;33.30
29891;DHT22;16759;49.540;8.642;2022-08-03T14:47:35;45.80;32.80
29891;DHT22;16759;49.540;8.642;2022-08-03T14:50:00;46.50;33.60
29891;DHT22;16759;49.540;8.642;2022-08-03T14:52:29;47.10;36.50
29891;DHT22;16759;49.540;8.642;2022-08-03T14:54:55;47.50;32.70
29891;DHT22;16759;49.540;8.642;2022-08-03T14:57:20;47.70;33.50
29891;DHT22;16759;49.540;8.642;2022-08-03T14:59:46;46.80;30.50
29891;DHT22;16759;49.540;8.642;2022-08-03T15:02:11;46.50;30.70
29891;DHT22;16759;49.540;8.642;2022-08-03T15:04:37;46.50;29.00
29891;DHT22;16759;49.540;8.642;2022-08-03T15:07:02;47.60;31.40
29891;DHT22;16759;49.540;8.642;2022-08-03T15:09:28;48.30;31.60
29891;DHT22;16759;49.540;8.642;2022-08-03T15:11:53;47.90;31.50
29891;DHT22;16759;49.540;8.642;2022-08-03T15:14:19;45.40;31.10
29891;DHT22;16759;49.540;8.642;2022-08-03T15:16:44;46.20;31.80
29891;DHT22;16759;49.540;8.642;2022-08-03T15:19:10;47.30;31.50
29891;DHT22;16759;49.540;8.642;2022-08-03T15:21:35;47.90;29.50
29891;DHT22;16759;49.540;8.642;2022-08-03T15:24:01;46.40;31.00
29891;DHT22;16759;49.540;8.642;2022-08-03T15:26:26;47.50;29.90
29891;DHT22;16759;49.540;8.642;2022-08-03T15:28:52;45.90;29.90
29891;DHT22;16759;49.540;8.642;2022-08-03T15:31:21;46.60;30.70
29891;DHT22;16759;49.540;8.642;2022-08-03T15:33:46;46.30;31.50
29891;DHT22;16759;49.540;8.642;2022-08-03T15:36:12;46.40;29.90
29891;DHT22;16759;49.540;8.642;2022-08-03T15:38:37;47.60;29.50
29891;DHT22;16759;49.540;8.642;2022-08-03T15:41:03;46.80;29.50
29891;DHT22;16759;49.540;8.642;2022-08-03T15:43:28;46.90;28.90
29891;DHT22;16759;49.540;8.642;2022-08-03T15:45:54;47.40;29.20
29891;DHT22;16759;49.540;8.642;2022-08-03T15:48:19;46.80;29.10
29891;DHT22;16759;49.540;8.642;2022-08-03T15:50:47;44.00;30.50
29891;DHT22;16759;49.540;8.642;2022-08-03T15:53:12;43.50;31.20
29891;DHT22;16759;49.540;8.642;2022-08-03T15:55:38;45.00;31.50
29891;DHT22;16759;49.540;8.642;2022-08-03T15:58:04;45.60;28.40
29891;DHT22;16759;49.540;8.642;2022-08-03T16:00:30;45.70;29.80
29891;DHT22;16759;49.540;8.642;2022-08-03T16:02:55;46.80;29.60
29891;DHT22;16759;49.540;8.642;2022-08-03T16:05:21;45.90;30.80
29891;DHT22;16759;49.540;8.642;2022-08-03T16:07:46;47.10;29.00
29891;DHT22;16759;49.540;8.642;2022-08-03T16:10:15;46.20;28.50
29891;DHT22;16759;49.540;8.642;2022-08-03T16:12:41;47.80;29.40
29891;DHT22;16759;49.540;8.642;2022-08-03T16:15:08;48.10;29.20